Nearby METAR Reports

 

CXKE - Kemptville, Ontario, Canada
Distance from station: ESE 39km
Updated: 20/07/2018 20:00

 Wind from ESE
Wind: ESE 2 km/h
Temperature: 28°C
Heat Index: 27°C
Dew Point: 13°C
Humidity: 40%
2018/07/21 00:00 CXKE 210000Z AUTO 12001KT 28/13 RMK AO1 SLP157 T02790133 56008
CYOW - Ottawa Intl, Ontario, Canada
Distance from station: NE 43km
Updated: 20/07/2018 20:00
Partly Cloudy
Partly Cloudy
 Wind from SE
Wind: SE 7 km/h
Temperature: 28°C
Heat Index: 28°C
Dew Point: 15°C
Humidity: 45%
Barometer: 1015.9 hPa
Clouds: Partly Cloudy
Visibility: 24 km
Cloud details: Partly Cloudy 7620 m
2018/07/21 00:00 CYOW 210000Z 13004KT 15SM SCT250 28/15 A3000 RMK CI3 SLP161 DENSITY ALT 1900FT
 
CYND - Gatineau Airport, Quebec, Canada
Distance from station: NE 64km
Updated: 20/07/2018 20:00
Partly Cloudy
Partly Cloudy
 Wind from E
Wind: E 9 km/h
Temperature: 26°C
Dew Point: 16°C
Humidity: 54%
Barometer: 1015.9 hPa
Clouds: Partly Cloudy
Visibility: 24 km
Cloud details: Partly Cloudy 7315 m
2018/07/21 00:00 CYND 210000Z 08005KT 15SM SCT240 26/16 A3000 RMK CI3 SLP160 DENSITY ALT 1500FT
CYGK - Kingston, Ontario, CA
Distance from station: S 80km
Updated: 20/07/2018 20:00
Mostly Cloudy
Mostly Cloudy
 Wind from SE
Wind: SE 17 km/h
Temperature: 26°C
Dew Point: 17°C
Humidity: 58%
Barometer: 1015.2 hPa
Clouds: Mostly Cloudy
Visibility: 24 km
Cloud details: Mostly Cloudy 7315 m
2018/07/21 00:00 CYGK 210000Z 14009KT 15SM BKN240 26/17 A2998 RMK CI5 SLP152 DENSITY ALT 1600FT